sensor_id;sensor_type;location;lat;lon;timestamp;pressure;altitude;pressure_sealevel;temperature;humidity
46379;BME280;32084;42.254;22.744;2024-03-25T00:00:45;93963.88;;;8.02;96.84
46379;BME280;32084;42.254;22.744;2024-03-25T00:03:17;93947.81;;;7.88;98.19
46379;BME280;32084;42.254;22.744;2024-03-25T00:05:49;93944.50;;;7.86;98.34
46379;BME280;32084;42.254;22.744;2024-03-25T00:08:21;93958.19;;;8.06;98.55
46379;BME280;32084;42.254;22.744;2024-03-25T00:10:54;93957.97;;;8.15;96.64
46379;BME280;32084;42.254;22.744;2024-03-25T00:13:26;93950.13;;;7.91;98.52
46379;BME280;32084;42.254;22.744;2024-03-25T00:15:58;93936.38;;;7.79;99.40
46379;BME280;32084;42.254;22.744;2024-03-25T00:18:31;93925.69;;;7.87;97.53
46379;BME280;32084;42.254;22.744;2024-03-25T00:21:03;93935.00;;;7.91;98.41
46379;BME280;32084;42.254;22.744;2024-03-25T00:23:35;93951.94;;;7.90;99.90
46379;BME280;32084;42.254;22.744;2024-03-25T00:26:08;93956.44;;;8.21;95.39
46379;BME280;32084;42.254;22.744;2024-03-25T00:28:40;93959.47;;;8.18;95.07
46379;BME280;32084;42.254;22.744;2024-03-25T00:31:12;93954.94;;;7.87;96.47
46379;BME280;32084;42.254;22.744;2024-03-25T00:33:44;93948.53;;;7.73;96.35
46379;BME280;32084;42.254;22.744;2024-03-25T00:36:16;93937.31;;;7.55;95.78
46379;BME280;32084;42.254;22.744;2024-03-25T00:38:48;93929.84;;;7.50;97.44
46379;BME280;32084;42.254;22.744;2024-03-25T00:41:21;93926.66;;;7.63;95.77
46379;BME280;32084;42.254;22.744;2024-03-25T00:43:53;93919.81;;;7.69;94.79
46379;BME280;32084;42.254;22.744;2024-03-25T00:46:25;93922.84;;;7.57;95.93
46379;BME280;32084;42.254;22.744;2024-03-25T00:48:57;93914.28;;;7.39;99.15
46379;BME280;32084;42.254;22.744;2024-03-25T00:51:29;93924.00;;;7.55;97.17
46379;BME280;32084;42.254;22.744;2024-03-25T00:54:01;93923.81;;;7.65;96.54
46379;BME280;32084;42.254;22.744;2024-03-25T00:56:34;93928.13;;;7.66;94.17
46379;BME280;32084;42.254;22.744;2024-03-25T00:59:06;93920.78;;;7.68;95.34
46379;BME280;32084;42.254;22.744;2024-03-25T01:01:36;93924.59;;;7.73;94.48
46379;BME280;32084;42.254;22.744;2024-03-25T01:04:08;93917.53;;;7.57;93.13
46379;BME280;32084;42.254;22.744;2024-03-25T01:06:40;93931.47;;;7.59;92.06
46379;BME280;32084;42.254;22.744;2024-03-25T01:09:12;93917.75;;;7.48;94.88
46379;BME280;32084;42.254;22.744;2024-03-25T01:11:44;93916.06;;;7.47;93.46
46379;BME280;32084;42.254;22.744;2024-03-25T01:14:16;93921.44;;;7.70;94.30
46379;BME280;32084;42.254;22.744;2024-03-25T01:16:48;93909.59;;;7.80;93.76
46379;BME280;32084;42.254;22.744;2024-03-25T01:19:20;93911.06;;;7.83;94.14
46379;BME280;32084;42.254;22.744;2024-03-25T01:21:53;93911.22;;;7.90;95.71
46379;BME280;32084;42.254;22.744;2024-03-25T01:24:25;93918.50;;;7.96;94.05
46379;BME280;32084;42.254;22.744;2024-03-25T01:26:57;93908.63;;;8.05;94.69
46379;BME280;32084;42.254;22.744;2024-03-25T01:29:29;93909.19;;;7.92;93.82
46379;BME280;32084;42.254;22.744;2024-03-25T01:32:01;93904.38;;;7.95;93.68
46379;BME280;32084;42.254;22.744;2024-03-25T01:34:34;93898.25;;;7.87;93.90
46379;BME280;32084;42.254;22.744;2024-03-25T01:37:06;93891.41;;;7.61;95.17
46379;BME280;32084;42.254;22.744;2024-03-25T01:39:36;93884.91;;;7.63;95.09
46379;BME280;32084;42.254;22.744;2024-03-25T01:42:10;93887.94;;;7.52;96.87
46379;BME280;32084;42.254;22.744;2024-03-25T01:44:42;93894.19;;;7.68;95.79
46379;BME280;32084;42.254;22.744;2024-03-25T01:47:14;93894.78;;;7.86;95.53
46379;BME280;32084;42.254;22.744;2024-03-25T01:49:46;93894.28;;;7.82;93.25
46379;BME280;32084;42.254;22.744;2024-03-25T01:52:19;93882.44;;;7.85;90.91
46379;BME280;32084;42.254;22.744;2024-03-25T01:54:52;93870.16;;;7.84;93.77
46379;BME280;32084;42.254;22.744;2024-03-25T01:57:25;93867.13;;;7.87;93.29
46379;BME280;32084;42.254;22.744;2024-03-25T01:59:58;93862.78;;;7.94;93.13
46379;BME280;32084;42.254;22.744;2024-03-25T02:02:30;93865.81;;;7.91;94.62
46379;BME280;32084;42.254;22.744;2024-03-25T02:05:03;93861.53;;;7.82;96.23
46379;BME280;32084;42.254;22.744;2024-03-25T02:07:35;93863.19;;;7.83;95.73
46379;BME280;32084;42.254;22.744;2024-03-25T02:10:13;93871.13;;;7.91;96.47
46379;BME280;32084;42.254;22.744;2024-03-25T02:12:48;93874.59;;;7.92;96.16
46379;BME280;32084;42.254;22.744;2024-03-25T02:15:20;93873.47;;;7.86;94.25
46379;BME280;32084;42.254;22.744;2024-03-25T02:17:53;93872.25;;;7.66;96.67
46379;BME280;32084;42.254;22.744;2024-03-25T02:20:25;93876.78;;;7.57;97.81
46379;BME280;32084;42.254;22.744;2024-03-25T02:22:57;93879.91;;;7.60;97.05
46379;BME280;32084;42.254;22.744;2024-03-25T02:25:31;93884.97;;;7.47;97.68
46379;BME280;32084;42.254;22.744;2024-03-25T02:28:04;93887.84;;;7.46;97.49
46379;BME280;32084;42.254;22.744;2024-03-25T02:30:36;93892.13;;;7.47;93.96
46379;BME280;32084;42.254;22.744;2024-03-25T02:33:08;93887.16;;;6.96;94.62
46379;BME280;32084;42.254;22.744;2024-03-25T02:35:40;93900.34;;;6.64;98.07
46379;BME280;32084;42.254;22.744;2024-03-25T02:38:13;93911.44;;;6.60;99.24
46379;BME280;32084;42.254;22.744;2024-03-25T02:40:47;93910.94;;;6.48;97.22
46379;BME280;32084;42.254;22.744;2024-03-25T02:43:20;93919.41;;;6.19;98.85
46379;BME280;32084;42.254;22.744;2024-03-25T02:45:53;93925.53;;;6.19;98.55
46379;BME280;32084;42.254;22.744;2024-03-25T02:48:25;93940.97;;;6.24;97.46
46379;BME280;32084;42.254;22.744;2024-03-25T02:50:57;93953.06;;;6.18;99.37
46379;BME280;32084;42.254;22.744;2024-03-25T02:53:29;93961.22;;;6.33;100.00
46379;BME280;32084;42.254;22.744;2024-03-25T02:56:01;93972.69;;;6.50;100.00
46379;BME280;32084;42.254;22.744;2024-03-25T02:58:33;93964.06;;;6.73;100.00
46379;BME280;32084;42.254;22.744;2024-03-25T03:01:05;93967.03;;;7.02;99.13
46379;BME280;32084;42.254;22.744;2024-03-25T03:03:36;93968.13;;;7.24;97.76
46379;BME280;32084;42.254;22.744;2024-03-25T03:06:08;93965.19;;;7.19;98.15
46379;BME280;32084;42.254;22.744;2024-03-25T03:08:40;93960.53;;;7.21;97.93
46379;BME280;32084;42.254;22.744;2024-03-25T03:11:12;93953.22;;;7.15;98.67
46379;BME280;32084;42.254;22.744;2024-03-25T03:13:44;93951.06;;;7.11;96.92
46379;BME280;32084;42.254;22.744;2024-03-25T03:16:16;93949.97;;;6.89;99.18
46379;BME280;32084;42.254;22.744;2024-03-25T03:18:48;93949.63;;;6.83;100.00
46379;BME280;32084;42.254;22.744;2024-03-25T03:21:20;93957.91;;;6.97;100.00
46379;BME280;32084;42.254;22.744;2024-03-25T03:23:52;93962.72;;;7.10;98.22
46379;BME280;32084;42.254;22.744;2024-03-25T03:26:24;93967.16;;;7.09;99.73
46379;BME280;32084;42.254;22.744;2024-03-25T03:28:59;93965.16;;;7.11;100.00
46379;BME280;32084;42.254;22.744;2024-03-25T03:31:31;93968.03;;;7.10;99.41
46379;BME280;32084;42.254;22.744;2024-03-25T03:34:03;93966.03;;;6.95;100.00
46379;BME280;32084;42.254;22.744;2024-03-25T03:36:35;93971.69;;;6.92;100.00
46379;BME280;32084;42.254;22.744;2024-03-25T03:39:07;93974.19;;;7.02;100.00
46379;BME280;32084;42.254;22.744;2024-03-25T03:41:42;93969.84;;;7.01;99.50
46379;BME280;32084;42.254;22.744;2024-03-25T03:44:14;93965.53;;;7.00;100.00
46379;BME280;32084;42.254;22.744;2024-03-25T03:46:47;93954.28;;;6.81;100.00
46379;BME280;32084;42.254;22.744;2024-03-25T03:49:19;93950.75;;;6.81;100.00
46379;BME280;32084;42.254;22.744;2024-03-25T03:51:51;93969.53;;;6.96;100.00
46379;BME280;32084;42.254;22.744;2024-03-25T03:54:23;93972.84;;;7.06;100.00
46379;BME280;32084;42.254;22.744;2024-03-25T03:56:55;93975.50;;;6.98;100.00
46379;BME280;32084;42.254;22.744;2024-03-25T03:59:28;93985.13;;;7.07;100.00
46379;BME280;32084;42.254;22.744;2024-03-25T04:02:00;93995.25;;;7.12;97.12
46379;BME280;32084;42.254;22.744;2024-03-25T04:04:32;94007.22;;;7.16;97.87
46379;BME280;32084;42.254;22.744;2024-03-25T04:07:04;94000.75;;;7.10;100.00
46379;BME280;32084;42.254;22.744;2024-03-25T04:09:36;93989.13;;;6.95;100.00
46379;BME280;32084;42.254;22.744;2024-03-25T04:12:08;93984.81;;;7.02;100.00
46379;BME280;32084;42.254;22.744;2024-03-25T04:14:40;93978.81;;;7.00;100.00
46379;BME280;32084;42.254;22.744;2024-03-25T04:17:12;93979.16;;;6.97;100.00
46379;BME280;32084;42.254;22.744;2024-03-25T04:19:44;93970.69;;;6.93;100.00
46379;BME280;32084;42.254;22.744;2024-03-25T04:22:16;93970.38;;;6.80;100.00
46379;BME280;32084;42.254;22.744;2024-03-25T04:24:48;94014.38;;;6.99;100.00
46379;BME280;32084;42.254;22.744;2024-03-25T04:27:20;94022.69;;;7.04;100.00
46379;BME280;32084;42.254;22.744;2024-03-25T04:29:54;94023.00;;;6.84;100.00
46379;BME280;32084;42.254;22.744;2024-03-25T04:32:26;94023.34;;;6.81;100.00
46379;BME280;32084;42.254;22.744;2024-03-25T04:34:59;94033.31;;;6.79;100.00
46379;BME280;32084;42.254;22.744;2024-03-25T04:37:30;94033.78;;;6.75;100.00
46379;BME280;32084;42.254;22.744;2024-03-25T04:40:03;94036.44;;;6.67;100.00
46379;BME280;32084;42.254;22.744;2024-03-25T04:42:35;94031.09;;;6.50;100.00
46379;BME280;32084;42.254;22.744;2024-03-25T04:45:08;94034.56;;;6.42;100.00
46379;BME280;32084;42.254;22.744;2024-03-25T04:47:38;94050.19;;;6.45;99.83
46379;BME280;32084;42.254;22.744;2024-03-25T04:50:10;94050.66;;;6.41;99.51
46379;BME280;32084;42.254;22.744;2024-03-25T04:52:42;94057.00;;;6.56;99.25
46379;BME280;32084;42.254;22.744;2024-03-25T04:55:14;94070.63;;;6.61;100.00
46379;BME280;32084;42.254;22.744;2024-03-25T04:57:46;94073.31;;;6.86;99.94
46379;BME280;32084;42.254;22.744;2024-03-25T05:00:18;94082.13;;;6.87;99.85
46379;BME280;32084;42.254;22.744;2024-03-25T05:02:50;94091.56;;;6.81;100.00
46379;BME280;32084;42.254;22.744;2024-03-25T05:05:21;94083.59;;;6.73;100.00
46379;BME280;32084;42.254;22.744;2024-03-25T05:07:55;94085.06;;;6.67;99.58
46379;BME280;32084;42.254;22.744;2024-03-25T05:10:24;94080.59;;;6.68;99.52
46379;BME280;32084;42.254;22.744;2024-03-25T05:12:57;94084.59;;;6.88;99.03
46379;BME280;32084;42.254;22.744;2024-03-25T05:15:29;94086.94;;;6.91;97.96
46379;BME280;32084;42.254;22.744;2024-03-25T05:18:01;94101.75;;;7.10;99.10
46379;BME280;32084;42.254;22.744;2024-03-25T05:20:33;94110.72;;;7.26;97.73
46379;BME280;32084;42.254;22.744;2024-03-25T05:23:05;94116.88;;;7.10;100.00
46379;BME280;32084;42.254;22.744;2024-03-25T05:25:36;94119.84;;;7.07;100.00
46379;BME280;32084;42.254;22.744;2024-03-25T05:28:08;94123.03;;;7.27;98.86
46379;BME280;32084;42.254;22.744;2024-03-25T05:30:40;94122.34;;;7.33;97.55
46379;BME280;32084;42.254;22.744;2024-03-25T05:33:13;94138.13;;;7.42;97.04
46379;BME280;32084;42.254;22.744;2024-03-25T05:35:45;94134.00;;;7.40;96.34
46379;BME280;32084;42.254;22.744;2024-03-25T05:38:17;94137.31;;;7.50;95.97
46379;BME280;32084;42.254;22.744;2024-03-25T05:40:49;94127.47;;;7.75;93.39
46379;BME280;32084;42.254;22.744;2024-03-25T05:43:21;94143.47;;;7.59;94.74
46379;BME280;32084;42.254;22.744;2024-03-25T05:45:53;94142.94;;;7.47;96.56
46379;BME280;32084;42.254;22.744;2024-03-25T05:48:26;94141.81;;;7.50;97.61
46379;BME280;32084;42.254;22.744;2024-03-25T05:51:02;94151.94;;;7.54;97.33
46379;BME280;32084;42.254;22.744;2024-03-25T05:53:34;94147.94;;;7.58;97.08
46379;BME280;32084;42.254;22.744;2024-03-25T05:56:07;94142.63;;;7.67;95.04
46379;BME280;32084;42.254;22.744;2024-03-25T05:58:37;94150.91;;;7.72;94.78
46379;BME280;32084;42.254;22.744;2024-03-25T06:01:12;94156.88;;;7.74;94.78
46379;BME280;32084;42.254;22.744;2024-03-25T06:03:44;94160.56;;;7.73;95.96
46379;BME280;32084;42.254;22.744;2024-03-25T06:06:17;94169.03;;;7.85;94.82
46379;BME280;32084;42.254;22.744;2024-03-25T06:08:49;94175.19;;;7.93;93.99
46379;BME280;32084;42.254;22.744;2024-03-25T06:11:21;94181.66;;;7.91;93.69
46379;BME280;32084;42.254;22.744;2024-03-25T06:13:53;94176.13;;;8.00;92.88
46379;BME280;32084;42.254;22.744;2024-03-25T06:16:25;94178.50;;;7.95;92.49
46379;BME280;32084;42.254;22.744;2024-03-25T06:18:58;94182.16;;;8.02;92.10
46379;BME280;32084;42.254;22.744;2024-03-25T06:21:30;94188.13;;;8.13;94.89
46379;BME280;32084;42.254;22.744;2024-03-25T06:24:02;94179.31;;;8.04;92.66
46379;BME280;32084;42.254;22.744;2024-03-25T06:26:34;94192.81;;;8.02;91.56
46379;BME280;32084;42.254;22.744;2024-03-25T06:29:06;94185.97;;;8.08;91.94
46379;BME280;32084;42.254;22.744;2024-03-25T06:31:36;94193.75;;;8.10;92.43
46379;BME280;32084;42.254;22.744;2024-03-25T06:34:27;94201.44;;;7.96;95.04
46379;BME280;32084;42.254;22.744;2024-03-25T06:36:59;94192.09;;;8.17;91.80
46379;BME280;32084;42.254;22.744;2024-03-25T06:39:31;94202.72;;;8.25;90.34
46379;BME280;32084;42.254;22.744;2024-03-25T06:42:03;94203.41;;;8.19;87.41
46379;BME280;32084;42.254;22.744;2024-03-25T06:44:35;94210.41;;;8.20;84.89
46379;BME280;32084;42.254;22.744;2024-03-25T06:47:07;94215.41;;;8.07;83.88
46379;BME280;32084;42.254;22.744;2024-03-25T06:49:39;94228.91;;;8.05;80.85
46379;BME280;32084;42.254;22.744;2024-03-25T06:52:11;94223.91;;;8.02;80.92
46379;BME280;32084;42.254;22.744;2024-03-25T06:54:44;94227.53;;;8.17;82.22
46379;BME280;32084;42.254;22.744;2024-03-25T06:57:16;94232.69;;;8.35;80.50
46379;BME280;32084;42.254;22.744;2024-03-25T06:59:48;94237.34;;;8.25;77.93
46379;BME280;32084;42.254;22.744;2024-03-25T07:02:20;94235.69;;;8.08;76.54
46379;BME280;32084;42.254;22.744;2024-03-25T07:04:52;94233.69;;;8.26;76.01
46379;BME280;32084;42.254;22.744;2024-03-25T07:07:24;94241.16;;;8.31;76.31
46379;BME280;32084;42.254;22.744;2024-03-25T07:09:56;94239.84;;;8.35;75.85
46379;BME280;32084;42.254;22.744;2024-03-25T07:12:29;94243.66;;;8.32;75.63
46379;BME280;32084;42.254;22.744;2024-03-25T07:15:01;94245.03;;;8.20;74.39
46379;BME280;32084;42.254;22.744;2024-03-25T07:17:33;94244.84;;;8.30;73.60
46379;BME280;32084;42.254;22.744;2024-03-25T07:20:05;94251.31;;;8.35;73.18
46379;BME280;32084;42.254;22.744;2024-03-25T07:22:39;94251.31;;;8.52;74.58
46379;BME280;32084;42.254;22.744;2024-03-25T07:25:11;94261.72;;;8.78;72.94
46379;BME280;32084;42.254;22.744;2024-03-25T07:27:44;94257.53;;;9.77;66.44
46379;BME280;32084;42.254;22.744;2024-03-25T07:30:16;94263.63;;;10.32;64.91
46379;BME280;32084;42.254;22.744;2024-03-25T07:32:48;94264.13;;;10.51;64.02
46379;BME280;32084;42.254;22.744;2024-03-25T07:35:20;94273.47;;;10.09;62.80
46379;BME280;32084;42.254;22.744;2024-03-25T07:37:52;94266.94;;;9.65;64.34
46379;BME280;32084;42.254;22.744;2024-03-25T07:40:24;94271.22;;;9.51;66.67
46379;BME280;32084;42.254;22.744;2024-03-25T07:42:57;94266.00;;;9.27;65.48
46379;BME280;32084;42.254;22.744;2024-03-25T07:45:29;94270.47;;;8.95;66.44
46379;BME280;32084;42.254;22.744;2024-03-25T07:48:01;94271.78;;;8.99;67.92
46379;BME280;32084;42.254;22.744;2024-03-25T07:50:33;94279.19;;;8.89;66.63
46379;BME280;32084;42.254;22.744;2024-03-25T07:53:05;94274.47;;;8.99;66.81
46379;BME280;32084;42.254;22.744;2024-03-25T07:55:36;94270.63;;;9.02;68.69
46379;BME280;32084;42.254;22.744;2024-03-25T07:58:08;94268.56;;;9.20;67.53
46379;BME280;32084;42.254;22.744;2024-03-25T08:00:40;94287.44;;;11.46;62.31
46379;BME280;32084;42.254;22.744;2024-03-25T08:03:12;94288.09;;;11.70;59.90
46379;BME280;32084;42.254;22.744;2024-03-25T08:05:44;94295.13;;;11.05;59.02
46379;BME280;32084;42.254;22.744;2024-03-25T08:08:16;94302.78;;;10.78;61.45
46379;BME280;32084;42.254;22.744;2024-03-25T08:10:49;94292.97;;;10.55;63.01
46379;BME280;32084;42.254;22.744;2024-03-25T08:13:21;94294.41;;;10.20;62.37
46379;BME280;32084;42.254;22.744;2024-03-25T08:15:53;94296.50;;;9.64;62.65
46379;BME280;32084;42.254;22.744;2024-03-25T08:18:25;94291.81;;;9.66;62.16
46379;BME280;32084;42.254;22.744;2024-03-25T08:20:57;94309.31;;;10.90;59.65
46379;BME280;32084;42.254;22.744;2024-03-25T08:23:29;94304.03;;;10.67;60.90
46379;BME280;32084;42.254;22.744;2024-03-25T08:26:01;94299.72;;;10.28;59.29
46379;BME280;32084;42.254;22.744;2024-03-25T08:28:34;94303.91;;;10.00;57.38
46379;BME280;32084;42.254;22.744;2024-03-25T08:31:06;94303.41;;;10.80;58.27
46379;BME280;32084;42.254;22.744;2024-03-25T08:33:36;94307.66;;;10.74;56.80
46379;BME280;32084;42.254;22.744;2024-03-25T08:36:08;94315.03;;;10.72;53.18
46379;BME280;32084;42.254;22.744;2024-03-25T08:38:40;94312.94;;;11.27;55.32
46379;BME280;32084;42.254;22.744;2024-03-25T08:41:13;94319.13;;;12.94;53.16
46379;BME280;32084;42.254;22.744;2024-03-25T08:43:45;94330.50;;;13.65;49.49
46379;BME280;32084;42.254;22.744;2024-03-25T08:46:17;94320.88;;;13.01;50.13
46379;BME280;32084;42.254;22.744;2024-03-25T08:48:49;94322.03;;;12.92;49.19
46379;BME280;32084;42.254;22.744;2024-03-25T08:51:21;94316.97;;;13.11;48.74
46379;BME280;32084;42.254;22.744;2024-03-25T08:53:53;94314.81;;;12.21;52.91
46379;BME280;32084;42.254;22.744;2024-03-25T08:56:25;94313.94;;;11.93;54.02
46379;BME280;32084;42.254;22.744;2024-03-25T08:58:57;94310.72;;;11.31;55.25
46379;BME280;32084;42.254;22.744;2024-03-25T09:01:29;94327.13;;;11.28;52.14
46379;BME280;32084;42.254;22.744;2024-03-25T09:04:02;94328.97;;;11.27;54.58
46379;BME280;32084;42.254;22.744;2024-03-25T09:06:35;94320.13;;;11.12;52.60
46379;BME280;32084;42.254;22.744;2024-03-25T09:09:08;94319.81;;;10.77;54.53
46379;BME280;32084;42.254;22.744;2024-03-25T09:11:58;94325.44;;;10.67;54.98
46379;BME280;32084;42.254;22.744;2024-03-25T09:14:31;94322.63;;;10.46;56.06
46379;BME280;32084;42.254;22.744;2024-03-25T09:17:03;94319.91;;;10.31;56.10
46379;BME280;32084;42.254;22.744;2024-03-25T09:19:35;94321.38;;;10.10;55.15
46379;BME280;32084;42.254;22.744;2024-03-25T09:22:07;94325.91;;;10.33;57.08
46379;BME280;32084;42.254;22.744;2024-03-25T09:24:39;94320.06;;;10.29;56.74
46379;BME280;32084;42.254;22.744;2024-03-25T09:27:11;94324.81;;;10.19;59.58
46379;BME280;32084;42.254;22.744;2024-03-25T09:29:43;94324.81;;;10.19;57.67
46379;BME280;32084;42.254;22.744;2024-03-25T09:32:15;94326.72;;;10.71;60.19
46379;BME280;32084;42.254;22.744;2024-03-25T09:34:47;94333.88;;;11.39;55.65
46379;BME280;32084;42.254;22.744;2024-03-25T09:37:22;94343.78;;;12.76;51.47
46379;BME280;32084;42.254;22.744;2024-03-25T09:39:54;94352.72;;;13.39;47.92
46379;BME280;32084;42.254;22.744;2024-03-25T09:42:26;94353.59;;;13.53;48.99
46379;BME280;32084;42.254;22.744;2024-03-25T09:44:59;94355.41;;;13.94;47.79
46379;BME280;32084;42.254;22.744;2024-03-25T09:47:31;94360.22;;;13.99;45.96
46379;BME280;32084;42.254;22.744;2024-03-25T09:50:04;94365.69;;;14.39;46.34
46379;BME280;32084;42.254;22.744;2024-03-25T09:52:37;94372.75;;;14.40;45.01
46379;BME280;32084;42.254;22.744;2024-03-25T09:55:09;94361.66;;;13.95;46.53
46379;BME280;32084;42.254;22.744;2024-03-25T09:57:42;94348.47;;;13.58;48.20
46379;BME280;32084;42.254;22.744;2024-03-25T10:00:14;94348.53;;;12.80;49.58
46379;BME280;32084;42.254;22.744;2024-03-25T10:02:46;94349.72;;;12.06;50.16
46379;BME280;32084;42.254;22.744;2024-03-25T10:05:19;94353.84;;;11.72;49.92
46379;BME280;32084;42.254;22.744;2024-03-25T10:07:51;94351.09;;;11.66;49.90
46379;BME280;32084;42.254;22.744;2024-03-25T10:10:23;94353.81;;;12.45;51.39
46379;BME280;32084;42.254;22.744;2024-03-25T10:12:55;94352.34;;;12.21;50.08
46379;BME280;32084;42.254;22.744;2024-03-25T10:15:27;94372.50;;;11.51;48.64
46379;BME280;32084;42.254;22.744;2024-03-25T10:17:59;94372.97;;;11.25;50.38
46379;BME280;32084;42.254;22.744;2024-03-25T10:20:31;94381.03;;;11.10;50.37
46379;BME280;32084;42.254;22.744;2024-03-25T10:23:03;94366.53;;;11.04;53.70
46379;BME280;32084;42.254;22.744;2024-03-25T10:25:36;94377.75;;;11.74;49.80
46379;BME280;32084;42.254;22.744;2024-03-25T10:28:08;94384.03;;;11.96;49.53
46379;BME280;32084;42.254;22.744;2024-03-25T10:30:40;94379.91;;;11.34;49.98
46379;BME280;32084;42.254;22.744;2024-03-25T10:33:13;94388.16;;;10.80;50.37
46379;BME280;32084;42.254;22.744;2024-03-25T10:35:45;94393.72;;;10.55;53.33
46379;BME280;32084;42.254;22.744;2024-03-25T10:38:19;94392.59;;;10.49;52.75
46379;BME280;32084;42.254;22.744;2024-03-25T10:40:51;94398.56;;;10.28;52.54
46379;BME280;32084;42.254;22.744;2024-03-25T10:43:26;94389.91;;;10.26;54.40
46379;BME280;32084;42.254;22.744;2024-03-25T10:46:00;94391.63;;;10.65;53.70
46379;BME280;32084;42.254;22.744;2024-03-25T10:48:36;94398.84;;;10.57;52.27
46379;BME280;32084;42.254;22.744;2024-03-25T10:51:09;94391.97;;;10.39;53.05
46379;BME280;32084;42.254;22.744;2024-03-25T10:53:42;94394.94;;;11.05;51.87
46379;BME280;32084;42.254;22.744;2024-03-25T10:56:14;94391.50;;;11.11;51.62
46379;BME280;32084;42.254;22.744;2024-03-25T10:58:50;94393.53;;;11.09;50.69
46379;BME280;32084;42.254;22.744;2024-03-25T11:01:22;94398.00;;;11.62;50.84
46379;BME280;32084;42.254;22.744;2024-03-25T11:03:54;94396.13;;;11.77;50.91
46379;BME280;32084;42.254;22.744;2024-03-25T11:06:27;94400.09;;;11.66;48.35
46379;BME280;32084;42.254;22.744;2024-03-25T11:08:59;94395.84;;;11.57;49.82
46379;BME280;32084;42.254;22.744;2024-03-25T11:11:32;94393.84;;;11.44;50.30
46379;BME280;32084;42.254;22.744;2024-03-25T11:14:14;94401.25;;;11.42;50.20
46379;BME280;32084;42.254;22.744;2024-03-25T11:16:53;94403.88;;;11.57;47.29
46379;BME280;32084;42.254;22.744;2024-03-25T11:19:26;94394.91;;;11.80;48.92
46379;BME280;32084;42.254;22.744;2024-03-25T11:22:08;94407.13;;;11.52;47.17
46379;BME280;32084;42.254;22.744;2024-03-25T11:24:43;94404.53;;;11.14;48.98
46379;BME280;32084;42.254;22.744;2024-03-25T11:27:20;94416.31;;;11.05;49.19
46379;BME280;32084;42.254;22.744;2024-03-25T11:29:53;94411.41;;;10.94;48.17
46379;BME280;32084;42.254;22.744;2024-03-25T11:32:25;94411.66;;;10.84;47.96
46379;BME280;32084;42.254;22.744;2024-03-25T11:34:58;94413.59;;;11.43;49.55
46379;BME280;32084;42.254;22.744;2024-03-25T11:37:30;94410.81;;;11.81;46.43
46379;BME280;32084;42.254;22.744;2024-03-25T11:40:03;94409.78;;;11.82;46.10
46379;BME280;32084;42.254;22.744;2024-03-25T11:42:37;94413.78;;;11.57;47.00
46379;BME280;32084;42.254;22.744;2024-03-25T11:45:16;94403.91;;;11.42;47.92
46379;BME280;32084;42.254;22.744;2024-03-25T11:47:48;94410.06;;;11.28;48.44
46379;BME280;32084;42.254;22.744;2024-03-25T11:50:20;94404.88;;;11.11;48.45
46379;BME280;32084;42.254;22.744;2024-03-25T11:52:53;94414.50;;;11.21;50.45
46379;BME280;32084;42.254;22.744;2024-03-25T11:55:25;94424.63;;;11.10;48.68
46379;BME280;32084;42.254;22.744;2024-03-25T11:57:57;94414.81;;;11.41;50.18
46379;BME280;32084;42.254;22.744;2024-03-25T12:00:29;94407.56;;;11.86;49.93
46379;BME280;32084;42.254;22.744;2024-03-25T12:03:01;94407.69;;;11.93;45.63
46379;BME280;32084;42.254;22.744;2024-03-25T12:05:34;94411.72;;;11.88;46.74
46379;BME280;32084;42.254;22.744;2024-03-25T12:08:09;94407.19;;;12.04;46.75
46379;BME280;32084;42.254;22.744;2024-03-25T12:10:42;94407.56;;;12.01;46.20
46379;BME280;32084;42.254;22.744;2024-03-25T12:13:32;94403.75;;;12.46;46.40
46379;BME280;32084;42.254;22.744;2024-03-25T12:16:04;94404.25;;;12.78;43.98
46379;BME280;32084;42.254;22.744;2024-03-25T12:18:36;94393.50;;;13.00;46.34
46379;BME280;32084;42.254;22.744;2024-03-25T12:21:09;94399.50;;;13.02;43.54
46379;BME280;32084;42.254;22.744;2024-03-25T12:23:42;94394.84;;;13.17;43.45
46379;BME280;32084;42.254;22.744;2024-03-25T12:26:14;94407.84;;;13.14;43.65
46379;BME280;32084;42.254;22.744;2024-03-25T12:28:46;94410.34;;;12.94;42.89
46379;BME280;32084;42.254;22.744;2024-03-25T12:31:18;94410.16;;;12.95;42.01
46379;BME280;32084;42.254;22.744;2024-03-25T12:33:50;94412.19;;;13.15;43.29
46379;BME280;32084;42.254;22.744;2024-03-25T12:36:22;94406.66;;;13.23;43.47
46379;BME280;32084;42.254;22.744;2024-03-25T12:38:58;94410.22;;;13.02;41.47
46379;BME280;32084;42.254;22.744;2024-03-25T12:41:30;94404.31;;;12.63;41.90
46379;BME280;32084;42.254;22.744;2024-03-25T12:44:03;94421.94;;;12.29;43.51
46379;BME280;32084;42.254;22.744;2024-03-25T12:46:35;94425.00;;;12.11;42.16
46379;BME280;32084;42.254;22.744;2024-03-25T12:49:07;94422.63;;;12.02;42.92
46379;BME280;32084;42.254;22.744;2024-03-25T12:51:36;94416.81;;;11.98;43.82
46379;BME280;32084;42.254;22.744;2024-03-25T12:54:08;94422.56;;;11.95;43.38
46379;BME280;32084;42.254;22.744;2024-03-25T12:56:40;94415.34;;;11.81;43.62
46379;BME280;32084;42.254;22.744;2024-03-25T12:59:14;94431.88;;;11.55;44.44
46379;BME280;32084;42.254;22.744;2024-03-25T13:01:46;94420.34;;;11.39;47.61
46379;BME280;32084;42.254;22.744;2024-03-25T13:04:18;94428.28;;;11.32;46.20
46379;BME280;32084;42.254;22.744;2024-03-25T13:06:50;94436.75;;;11.21;46.22
46379;BME280;32084;42.254;22.744;2024-03-25T13:09:22;94429.25;;;11.17;46.49
46379;BME280;32084;42.254;22.744;2024-03-25T13:11:54;94426.13;;;11.28;47.51
46379;BME280;32084;42.254;22.744;2024-03-25T13:14:26;94434.72;;;11.23;47.49
46379;BME280;32084;42.254;22.744;2024-03-25T13:16:58;94442.09;;;11.21;47.24
46379;BME280;32084;42.254;22.744;2024-03-25T13:19:30;94437.19;;;11.10;46.46
46379;BME280;32084;42.254;22.744;2024-03-25T13:22:02;94442.06;;;11.06;47.22